createdAt,value
2023-04-22T00:01:40.705Z,100533.20
2023-04-22T00:06:44.631Z,100527.40
2023-04-22T00:11:45.294Z,100529.20
2023-04-22T00:16:45.859Z,100521.20
2023-04-22T00:21:46.733Z,100513.80
2023-04-22T00:26:49.380Z,100513.80
2023-04-22T00:31:49.065Z,100511.60
2023-04-22T00:36:49.209Z,100514.00
2023-04-22T00:41:49.825Z,100511.80
2023-04-22T00:46:50.449Z,100508.60
2023-04-22T00:51:53.139Z,100514.20
2023-04-22T00:56:53.441Z,100509.80
2023-04-22T01:01:55.474Z,100515.60
2023-04-22T01:06:57.169Z,100507.60
2023-04-22T01:18:42.512Z,100508.00
2023-04-22T01:31:44.298Z,100502.20
2023-04-22T01:36:53.633Z,100500.60
2023-04-22T01:43:08.596Z,100497.60
2023-04-22T01:48:09.678Z,100501.20
2023-04-22T01:53:14.174Z,100507.20
2023-04-22T01:58:15.040Z,100505.60
2023-04-22T02:03:15.630Z,100497.20
2023-04-22T02:08:15.896Z,100498.40
2023-04-22T02:13:16.781Z,100489.80
2023-04-22T02:18:18.386Z,100492.20
2023-04-22T02:23:18.805Z,100480.60
2023-04-22T02:28:18.513Z,100481.20
2023-04-22T02:33:19.152Z,100478.00
2023-04-22T02:38:18.911Z,100477.60
2023-04-22T02:43:18.941Z,100476.20
2023-04-22T02:48:21.592Z,100474.60
2023-04-22T02:53:21.108Z,100470.40
2023-04-22T02:58:20.515Z,100472.00
2023-04-22T03:03:22.234Z,100473.80
2023-04-22T03:08:26.608Z,100480.20
2023-04-22T03:13:27.232Z,100474.20
2023-04-22T03:25:53.427Z,100480.40
2023-04-22T03:30:53.634Z,100479.60
2023-04-22T03:36:51.082Z,100485.00
2023-04-22T03:42:33.968Z,100488.00
2023-04-22T03:47:36.669Z,100491.40
2023-04-22T03:52:43.252Z,100498.00
2023-04-22T03:57:45.687Z,100492.20
2023-04-22T04:02:46.238Z,100498.80
2023-04-22T04:07:52.883Z,100498.40
2023-04-22T04:12:59.182Z,100504.00
2023-04-22T04:18:02.448Z,100506.60
2023-04-22T04:23:21.243Z,100511.20
2023-04-22T04:28:38.452Z,100517.60
2023-04-22T04:33:40.470Z,100514.60
2023-04-22T04:38:45.857Z,100520.00
2023-04-22T04:43:50.816Z,100523.00
2023-04-22T04:49:02.743Z,100528.20
2023-04-22T04:54:08.985Z,100526.00
2023-04-22T04:59:10.848Z,100534.40
2023-04-22T05:04:14.987Z,100530.60
2023-04-22T05:09:54.341Z,100530.60
2023-04-22T05:15:42.917Z,100531.60
2023-04-22T05:21:53.350Z,100535.60
2023-04-22T05:27:23.338Z,100534.80
2023-04-22T05:39:55.593Z,100538.00
2023-04-22T05:45:47.528Z,100540.40
2023-04-22T05:52:21.035Z,100543.20
2023-04-22T05:58:39.202Z,100539.40
2023-04-22T06:12:23.962Z,100537.40
2023-04-22T06:18:17.141Z,100539.40
2023-04-22T06:29:48.225Z,100540.00
2023-04-22T06:35:45.690Z,100537.80
2023-04-22T06:41:20.194Z,100536.20
2023-04-22T06:47:04.906Z,100540.20
2023-04-22T06:52:40.507Z,100534.00
2023-04-22T06:57:50.025Z,100532.40
2023-04-22T07:08:47.402Z,100537.00
2023-04-22T07:14:28.538Z,100532.80
2023-04-22T07:20:35.511Z,100532.20
2023-04-22T07:26:27.858Z,100535.40
2023-04-22T07:32:26.077Z,100535.60
2023-04-22T07:38:31.943Z,100536.20
2023-04-22T07:43:35.378Z,100532.00
2023-04-22T07:49:09.829Z,100520.40
2023-04-22T08:00:58.573Z,100521.00
2023-04-22T08:06:47.966Z,100519.80
2023-04-22T08:11:51.835Z,100513.60
2023-04-22T08:16:52.935Z,100516.20
2023-04-22T08:22:43.787Z,100518.00
2023-04-22T08:28:25.991Z,100514.80
2023-04-22T08:33:27.379Z,100514.80
2023-04-22T08:38:28.381Z,100505.80
2023-04-22T08:43:30.189Z,100507.60
2023-04-22T08:54:46.645Z,100509.00
2023-04-22T08:59:46.708Z,100505.60
2023-04-22T09:05:01.760Z,100505.60
2023-04-22T09:10:05.697Z,100503.00
2023-04-22T09:15:12.439Z,100504.80
2023-04-22T09:20:16.514Z,100495.40
2023-04-22T09:25:22.799Z,100499.00
2023-04-22T09:30:35.215Z,100498.20
2023-04-22T09:35:40.119Z,100495.20
2023-04-22T09:40:48.396Z,100495.20
2023-04-22T09:47:24.709Z,100483.00
2023-04-22T09:52:29.068Z,100483.00
2023-04-22T09:57:32.077Z,100475.20
2023-04-22T10:02:39.619Z,100468.60
2023-04-22T10:07:45.057Z,100464.20
2023-04-22T10:12:44.977Z,100462.20
2023-04-22T10:17:48.802Z,100461.00
2023-04-22T10:23:40.624Z,100454.60
2023-04-22T10:29:27.131Z,100459.00
2023-04-22T10:41:54.104Z,100458.60
2023-04-22T10:53:53.246Z,100456.20
2023-04-22T10:58:57.279Z,100449.80
2023-04-22T11:04:20.027Z,100446.00
2023-04-22T11:09:19.957Z,100442.00
2023-04-22T11:14:24.225Z,100446.60
2023-04-22T11:19:25.467Z,100447.20
2023-04-22T11:24:25.622Z,100441.20
2023-04-22T11:29:25.954Z,100439.20
2023-04-22T11:34:28.417Z,100432.60
2023-04-22T11:39:55.974Z,100429.20
2023-04-22T11:45:01.718Z,100430.40
2023-04-22T11:50:05.463Z,100427.40
2023-04-22T11:55:05.239Z,100435.60
2023-04-22T12:00:05.633Z,100439.80
2023-04-22T12:05:06.116Z,100432.40
2023-04-22T12:10:08.233Z,100421.60
2023-04-22T12:15:18.173Z,100418.00
2023-04-22T12:20:18.308Z,100417.80
2023-04-22T12:25:23.346Z,100418.40
2023-04-22T12:30:24.861Z,100415.20
2023-04-22T12:35:24.822Z,100416.40
2023-04-22T12:40:24.810Z,100410.40
2023-04-22T12:45:25.033Z,100415.60
2023-04-22T12:50:25.036Z,100412.40
2023-04-22T12:55:25.217Z,100401.00
2023-04-22T13:00:26.659Z,100402.20
2023-04-22T13:05:26.993Z,100393.60
2023-04-22T13:10:28.374Z,100388.80
2023-04-22T13:15:30.327Z,100386.20
2023-04-22T13:20:30.288Z,100380.20
2023-04-22T13:25:32.762Z,100386.20
2023-04-22T13:30:32.733Z,100379.60
2023-04-22T13:35:32.496Z,100381.00
2023-04-22T13:40:31.834Z,100375.80
2023-04-22T13:45:51.889Z,100373.60
2023-04-22T13:50:51.260Z,100373.60
2023-04-22T13:55:50.891Z,100363.40
2023-04-22T14:00:50.824Z,100363.00
2023-04-22T14:05:49.870Z,100359.80
2023-04-22T14:10:48.615Z,100371.60
2023-04-22T14:15:47.511Z,100370.20
2023-04-22T14:20:48.407Z,100365.20
2023-04-22T14:25:48.624Z,100366.20
2023-04-22T14:30:49.298Z,100353.40
2023-04-22T14:35:49.126Z,100347.80
2023-04-22T14:40:48.737Z,100349.20
2023-04-22T14:45:49.386Z,100343.80
2023-04-22T14:50:49.044Z,100348.20
2023-04-22T14:55:48.874Z,100353.20
2023-04-22T15:00:49.115Z,100359.00
2023-04-22T15:05:49.567Z,100358.60
2023-04-22T15:10:49.505Z,100357.00
2023-04-22T15:15:52.240Z,100362.40
2023-04-22T15:20:52.717Z,100370.80
2023-04-22T15:25:51.855Z,100372.20
2023-04-22T15:30:50.972Z,100371.60
2023-04-22T15:35:50.692Z,100365.60
2023-04-22T15:40:49.655Z,100349.00
2023-04-22T15:45:49.263Z,100345.00
2023-04-22T15:50:48.400Z,100334.40
2023-04-22T15:55:48.752Z,100319.00
2023-04-22T16:00:47.732Z,100324.80
2023-04-22T16:05:47.283Z,100329.80
2023-04-22T16:10:48.105Z,100337.20
2023-04-22T16:15:47.881Z,100344.00
2023-04-22T16:20:48.431Z,100347.00
2023-04-22T16:25:48.487Z,100349.20
2023-04-22T16:30:47.421Z,100349.20
2023-04-22T16:35:47.132Z,100349.20
2023-04-22T16:40:46.156Z,100350.00
2023-04-22T16:45:46.870Z,100347.40
2023-04-22T16:50:46.177Z,100343.40
2023-04-22T16:55:48.225Z,100345.40
2023-04-22T17:00:48.777Z,100344.60
2023-04-22T17:05:48.278Z,100349.40
2023-04-22T17:10:52.073Z,100346.60
2023-04-22T17:15:51.588Z,100337.20
2023-04-22T17:20:51.527Z,100331.00
2023-04-22T17:25:51.096Z,100332.00
2023-04-22T17:30:50.724Z,100320.60
2023-04-22T17:35:50.207Z,100316.00
2023-04-22T17:40:52.539Z,100315.20
2023-04-22T17:45:51.259Z,100314.20
2023-04-22T17:50:50.938Z,100314.20
2023-04-22T17:55:50.238Z,100311.60
2023-04-22T18:00:50.131Z,100322.80
2023-04-22T18:05:49.229Z,100317.80
2023-04-22T18:10:48.712Z,100321.60
2023-04-22T18:15:48.133Z,100318.80
2023-04-22T18:20:47.360Z,100321.40
2023-04-22T18:25:48.199Z,100321.80
2023-04-22T18:30:48.444Z,100324.60
2023-04-22T18:35:47.674Z,100326.60
2023-04-22T18:40:47.091Z,100331.60
2023-04-22T18:45:46.953Z,100332.00
2023-04-22T18:50:46.965Z,100338.60
2023-04-22T18:55:47.409Z,100338.60
2023-04-22T19:00:48.055Z,100333.40
2023-04-22T19:05:50.954Z,100328.60
2023-04-22T19:10:50.499Z,100329.80
2023-04-22T19:15:49.678Z,100322.80
2023-04-22T19:20:49.322Z,100325.40
2023-04-22T19:25:49.760Z,100321.40
2023-04-22T19:30:49.856Z,100328.40
2023-04-22T19:35:49.047Z,100325.00
2023-04-22T19:40:50.495Z,100331.80
2023-04-22T19:45:50.527Z,100323.80
2023-04-22T19:50:51.142Z,100320.00
2023-04-22T19:55:52.641Z,100313.80
2023-04-22T20:00:53.640Z,100318.80
2023-04-22T20:05:55.716Z,100315.40
2023-04-22T20:10:56.748Z,100316.20
2023-04-22T20:16:11.984Z,100310.00
2023-04-22T20:21:13.063Z,100313.00
2023-04-22T20:26:13.497Z,100312.40
2023-04-22T20:31:13.833Z,100310.60
2023-04-22T20:36:16.482Z,100303.40
2023-04-22T20:41:19.043Z,100306.20
2023-04-22T20:46:20.207Z,100309.80
2023-04-22T20:51:24.418Z,100308.20
2023-04-22T20:56:23.272Z,100307.00
2023-04-22T21:01:23.056Z,100308.60
2023-04-22T21:06:24.326Z,100306.20
2023-04-22T21:11:26.769Z,100306.00
2023-04-22T21:16:31.718Z,100306.20
2023-04-22T21:21:36.206Z,100300.00
2023-04-22T21:26:37.619Z,100302.20
2023-04-22T21:31:38.050Z,100303.20
2023-04-22T21:36:37.687Z,100306.00
2023-04-22T21:41:37.611Z,100308.20
2023-04-22T21:46:37.212Z,100304.00
2023-04-22T21:51:40.245Z,100306.40
2023-04-22T21:56:40.729Z,100308.80
2023-04-22T22:01:39.606Z,100308.40
2023-04-22T22:06:38.735Z,100304.80
2023-04-22T22:11:41.053Z,100307.20
2023-04-22T22:16:40.447Z,100305.40
2023-04-22T22:21:39.402Z,100309.60
2023-04-22T22:26:41.161Z,100308.20
2023-04-22T22:31:40.063Z,100305.60
2023-04-22T22:36:39.039Z,100307.40
2023-04-22T22:41:38.357Z,100309.80
2023-04-22T22:46:40.427Z,100309.20
2023-04-22T22:51:40.340Z,100307.00
2023-04-22T22:56:39.542Z,100307.80
2023-04-22T23:01:39.482Z,100307.20
2023-04-22T23:06:38.760Z,100309.20
2023-04-22T23:11:38.168Z,100311.80
2023-04-22T23:16:38.293Z,100310.60
2023-04-22T23:21:39.128Z,100306.80
2023-04-22T23:26:40.101Z,100313.60
2023-04-22T23:31:41.284Z,100305.80
2023-04-22T23:36:41.305Z,100302.80
2023-04-22T23:41:40.981Z,100303.60
2023-04-22T23:46:40.694Z,100298.00
2023-04-22T23:51:39.706Z,100291.60
2023-04-22T23:56:45.605Z,100293.20
